Time;durP1;ratioP1;P1;durP2;ratioP2;P2;SDS_P1;SDS_P2;PMS_P1;PMS_P2;Temp;Humidity;BMP_temperature;BMP_pressure;BME280_temperature;BME280_humidity;BME280_pressure;Samples;Min_cycle;Max_cycle;Signal;HPM_P1;HPM_P2
2022/04/30 00:00:20;;;;;;;0.60;0.60;;;4.60;99.90;;;;;;5023682;28;20053;-66
2022/04/30 00:02:48;;;;;;;0.47;0.47;;;4.60;99.90;;;;;;5024726;28;20473;-67
2022/04/30 00:05:15;;;;;;;1.33;0.77;;;4.70;99.90;;;;;;5025776;28;20045;-66
2022/04/30 00:07:42;;;;;;;0.77;0.65;;;4.60;99.90;;;;;;5024572;28;20132;-65
2022/04/30 00:10:10;;;;;;;2.75;0.95;;;4.70;99.90;;;;;;5025336;28;20052;-67
2022/04/30 00:12:36;;;;;;;1.48;1.13;;;4.70;99.90;;;;;;5024887;28;20044;-66
2022/04/30 00:15:05;;;;;;;0.75;0.75;;;4.70;99.90;;;;;;5023297;28;20132;-67
2022/04/30 00:17:32;;;;;;;0.98;0.68;;;4.70;99.90;;;;;;5025495;28;20053;-66
2022/04/30 00:20:00;;;;;;;0.85;0.75;;;4.70;99.90;;;;;;5022737;28;20131;-67
2022/04/30 00:22:27;;;;;;;0.75;0.70;;;4.70;99.90;;;;;;5024026;28;20048;-65
2022/04/30 00:24:54;;;;;;;1.10;0.80;;;4.70;99.90;;;;;;5022885;28;20049;-66
2022/04/30 00:27:21;;;;;;;2.28;0.93;;;4.70;99.90;;;;;;5024494;28;20082;-69
2022/04/30 00:29:48;;;;;;;4.95;1.17;;;4.70;99.90;;;;;;5025366;28;20049;-69
2022/04/30 00:32:15;;;;;;;1.67;0.68;;;4.70;99.90;;;;;;5023167;28;20055;-66
2022/04/30 00:34:42;;;;;;;0.60;0.60;;;4.70;99.90;;;;;;5025381;28;20055;-67
2022/04/30 00:37:10;;;;;;;1.48;1.13;;;4.70;99.90;;;;;;5028016;28;20973;-65
2022/04/30 00:39:37;;;;;;;1.35;0.80;;;4.70;99.90;;;;;;5022688;28;20505;-66
2022/04/30 00:42:04;;;;;;;5.47;1.00;;;4.70;99.90;;;;;;5018786;28;20214;-66
2022/04/30 00:44:31;;;;;;;4.20;1.00;;;4.60;99.90;;;;;;5019671;28;20172;-65
2022/04/30 00:46:58;;;;;;;1.15;1.00;;;4.70;99.90;;;;;;5024448;28;20771;-69
2022/04/30 00:49:25;;;;;;;2.58;0.80;;;4.70;99.90;;;;;;5024318;28;20624;-63
2022/04/30 00:51:53;;;;;;;3.42;1.02;;;4.60;99.90;;;;;;5025298;28;20052;-64
2022/04/30 00:54:20;;;;;;;0.80;0.70;;;4.60;99.90;;;;;;5022208;28;20174;-67
2022/04/30 00:56:52;;;;;;;1.52;1.42;;;4.60;99.90;;;;;;5023186;28;20049;-67
2022/04/30 00:59:19;;;;;;;1.45;0.95;;;4.60;99.90;;;;;;5027130;28;20153;-66
2022/04/30 01:01:48;;;;;;;1.05;0.90;;;4.60;99.90;;;;;;5025448;28;20053;-71
2022/04/30 01:04:34;;;;;;;1.55;0.55;;;4.60;99.90;;;;;;5021655;28;20133;-64
2022/04/30 01:07:10;;;;;;;0.80;0.80;;;4.60;99.90;;;;;;5021205;28;20048;-70
2022/04/30 01:09:43;;;;;;;1.80;1.05;;;4.60;99.90;;;;;;5022388;28;20053;-68
2022/04/30 01:12:11;;;;;;;0.93;0.80;;;4.60;99.90;;;;;;5024073;28;20053;-65
2022/04/30 01:14:39;;;;;;;1.30;0.98;;;4.60;99.90;;;;;;5026695;28;20072;-65
2022/04/30 01:17:09;;;;;;;2.20;0.85;;;4.50;99.90;;;;;;5027109;28;20049;-65
2022/04/30 01:19:39;;;;;;;4.07;0.52;;;4.50;99.90;;;;;;5023182;28;20327;-67
2022/04/30 01:22:13;;;;;;;1.50;0.90;;;4.40;99.90;;;;;;5028320;28;20183;-64
2022/04/30 01:24:41;;;;;;;0.60;0.60;;;4.40;99.90;;;;;;5025533;28;20076;-66
2022/04/30 01:27:08;;;;;;;1.52;0.75;;;4.30;99.90;;;;;;5022317;28;20072;-66
2022/04/30 01:29:39;;;;;;;2.20;0.60;;;4.30;99.90;;;;;;5025038;28;21312;-63
2022/04/30 01:37:37;;;;;;;2.58;0.60;;;4.20;99.90;;;;;;5026301;28;20171;-66
2022/04/30 01:40:11;;;;;;;1.50;0.50;;;4.20;99.90;;;;;;5025669;28;20109;-64
2022/04/30 01:42:47;;;;;;;1.08;0.85;;;4.20;99.90;;;;;;5021828;28;20052;-67
2022/04/30 01:45:15;;;;;;;1.52;0.57;;;4.10;99.90;;;;;;5026297;28;20056;-66
2022/04/30 01:47:44;;;;;;;2.22;0.82;;;4.10;99.90;;;;;;5026518;28;20048;-64
2022/04/30 01:50:13;;;;;;;0.90;0.60;;;4.10;99.90;;;;;;5016081;28;20053;-69
2022/04/30 01:52:40;;;;;;;3.70;1.40;;;4.00;99.90;;;;;;5025292;28;20080;-64
2022/04/30 01:55:07;;;;;;;1.45;0.68;;;4.00;99.90;;;;;;5021376;28;20132;-68
2022/04/30 01:57:34;;;;;;;3.78;1.02;;;4.00;99.90;;;;;;5019842;28;20053;-67
2022/04/30 02:00:04;;;;;;;2.40;0.65;;;4.00;99.90;;;;;;5024429;28;20045;-65
2022/04/30 02:02:40;;;;;;;2.97;0.35;;;4.00;99.90;;;;;;5021592;28;20117;-66
2022/04/30 02:05:08;;;;;;;1.50;0.50;;;3.90;99.90;;;;;;5019889;28;20203;-67
2022/04/30 02:07:43;;;;;;;2.13;0.68;;;4.00;99.90;;;;;;5021532;28;20045;-63
2022/04/30 02:10:11;;;;;;;1.27;1.17;;;4.00;99.90;;;;;;5005600;28;20103;-66
2022/04/30 02:12:39;;;;;;;1.85;0.52;;;4.00;99.90;;;;;;5025898;28;20045;-65
2022/04/30 02:15:08;;;;;;;2.13;1.52;;;4.00;99.90;;;;;;5026890;28;20056;-66
2022/04/30 02:17:38;;;;;;;0.57;0.35;;;4.00;99.90;;;;;;5023899;28;20450;-65
2022/04/30 02:20:19;;;;;;;0.65;0.50;;;4.00;99.90;;;;;;5025576;28;20048;-65
2022/04/30 02:22:46;;;;;;;1.42;0.40;;;4.10;99.90;;;;;;5025303;28;20201;-67
2022/04/30 02:25:14;;;;;;;1.63;0.70;;;4.10;99.90;;;;;;5025255;28;21042;-65
2022/04/30 02:27:44;;;;;;;0.52;0.50;;;4.10;99.90;;;;;;5026134;28;20910;-66
2022/04/30 02:30:14;;;;;;;1.42;1.15;;;4.10;99.90;;;;;;5024109;28;20388;-67
2022/04/30 02:32:52;;;;;;;1.38;0.50;;;4.20;99.90;;;;;;5026696;28;20053;-66
2022/04/30 02:35:28;;;;;;;1.25;0.40;;;4.20;99.90;;;;;;5023448;28;20179;-65
2022/04/30 02:37:58;;;;;;;2.15;0.50;;;4.30;99.90;;;;;;5020012;28;20108;-69
2022/04/30 02:40:28;;;;;;;0.90;0.63;;;4.30;99.90;;;;;;5036129;28;20067;-65
2022/04/30 02:43:00;;;;;;;2.53;0.63;;;4.30;99.90;;;;;;5022201;28;20056;-63
2022/04/30 02:45:27;;;;;;;0.90;0.70;;;4.30;99.90;;;;;;5023303;28;20742;-68
2022/04/30 02:47:56;;;;;;;1.55;0.70;;;4.20;99.90;;;;;;5022340;28;20071;-67
2022/04/30 02:50:25;;;;;;;2.83;0.75;;;4.20;99.90;;;;;;5019679;28;20727;-66
2022/04/30 02:52:55;;;;;;;2.65;0.70;;;4.20;99.90;;;;;;5023067;28;20137;-65
2022/04/30 02:55:23;;;;;;;1.88;0.57;;;4.20;99.90;;;;;;5023379;28;20144;-65
2022/04/30 03:00:43;;;;;;;2.38;0.68;;;4.20;99.90;;;;;;5021536;28;20073;-66
2022/04/30 03:03:36;;;;;;;4.20;0.63;;;4.20;99.90;;;;;;5020889;28;20087;-67
2022/04/30 03:06:03;;;;;;;3.92;0.52;;;4.20;99.90;;;;;;5021641;28;20044;-63
2022/04/30 03:08:31;;;;;;;1.77;0.88;;;4.20;99.90;;;;;;5023331;28;20951;-66
2022/04/30 03:10:58;;;;;;;0.95;0.95;;;4.20;99.90;;;;;;5037027;28;20155;-68
2022/04/30 03:13:25;;;;;;;1.00;0.45;;;4.20;99.90;;;;;;5027330;28;20067;-66
2022/04/30 03:15:55;;;;;;;2.05;0.47;;;4.20;99.90;;;;;;5028813;28;20067;-64
2022/04/30 03:23:47;;;;;;;2.33;0.60;;;4.30;99.90;;;;;;5028047;28;20059;-64
2022/04/30 03:26:15;;;;;;;2.15;0.80;;;4.40;99.90;;;;;;5028125;28;20574;-65
2022/04/30 03:28:43;;;;;;;1.02;0.77;;;4.40;99.90;;;;;;5041342;28;20819;-67
2022/04/30 03:31:11;;;;;;;0.45;0.40;;;4.40;99.90;;;;;;5026015;28;20160;-66
2022/04/30 03:33:38;;;;;;;0.70;0.52;;;4.40;99.90;;;;;;5028769;28;20176;-69
2022/04/30 03:36:06;;;;;;;1.30;0.47;;;4.40;99.90;;;;;;5025104;28;20071;-68
2022/04/30 03:38:33;;;;;;;0.85;0.85;;;4.40;99.90;;;;;;5022957;28;20806;-66
2022/04/30 03:41:00;;;;;;;0.73;0.52;;;4.50;99.90;;;;;;5025763;28;20053;-63
2022/04/30 03:43:27;;;;;;;0.70;0.57;;;4.50;99.90;;;;;;5031411;28;20101;-66
2022/04/30 03:45:54;;;;;;;1.85;0.80;;;4.50;99.90;;;;;;5031311;28;20049;-65
2022/04/30 03:48:21;;;;;;;2.08;0.60;;;4.50;99.90;;;;;;5027810;28;20130;-67
2022/04/30 03:50:48;;;;;;;0.60;0.45;;;4.60;99.90;;;;;;5025276;28;20223;-67
2022/04/30 03:53:15;;;;;;;0.63;0.52;;;4.70;99.90;;;;;;5024667;28;20170;-65
2022/04/30 03:55:43;;;;;;;0.65;0.57;;;4.70;99.90;;;;;;5025786;28;20049;-64
2022/04/30 03:58:10;;;;;;;2.00;0.75;;;4.80;99.90;;;;;;5025105;28;20132;-67
2022/04/30 04:00:37;;;;;;;1.17;0.57;;;4.80;99.90;;;;;;5025105;28;20172;-67
2022/04/30 04:03:04;;;;;;;0.88;0.70;;;4.90;99.90;;;;;;5025041;28;20059;-65
2022/04/30 04:05:31;;;;;;;0.65;0.65;;;5.00;99.90;;;;;;5024465;28;20168;-63
2022/04/30 04:07:59;;;;;;;0.95;0.82;;;5.10;99.90;;;;;;5027254;28;21487;-63
2022/04/30 04:10:26;;;;;;;2.30;0.73;;;5.10;99.90;;;;;;5022538;28;21310;-64
2022/04/30 04:17:37;;;;;;;0.52;0.35;;;5.20;99.90;;;;;;5026493;28;20049;-66
2022/04/30 04:18:25;;;;;;;1.67;0.70;;;5.40;99.90;;;;;;5024197;28;20057;-63
2022/04/30 04:20:52;;;;;;;1.27;0.40;;;5.40;99.90;;;;;;5027526;28;20075;-67
2022/04/30 04:23:19;;;;;;;2.40;0.70;;;5.50;99.90;;;;;;5025143;28;20059;-66
2022/04/30 04:26:01;;;;;;;2.83;1.33;;;5.60;99.90;;;;;;5025788;28;20143;-67
2022/04/30 04:28:28;;;;;;;1.45;0.88;;;5.60;99.90;;;;;;5024952;28;21504;-67
2022/04/30 04:30:58;;;;;;;2.15;0.63;;;5.70;99.90;;;;;;5026511;28;20045;-67
2022/04/30 04:33:25;;;;;;;3.72;1.33;;;5.70;99.90;;;;;;5022049;28;20052;-65
2022/04/30 04:35:52;;;;;;;2.10;1.20;;;5.70;99.90;;;;;;5026820;28;20056;-64
2022/04/30 04:38:19;;;;;;;0.63;0.55;;;5.70;99.90;;;;;;5025158;28;20140;-67
2022/04/30 04:40:46;;;;;;;1.45;0.88;;;5.70;99.90;;;;;;5025458;28;20744;-64
2022/04/30 04:43:13;;;;;;;0.85;0.82;;;5.80;99.90;;;;;;5026363;28;20044;-69
2022/04/30 04:45:40;;;;;;;1.48;0.50;;;5.80;99.90;;;;;;5024864;28;21602;-67
2022/04/30 04:48:09;;;;;;;0.77;0.70;;;5.80;99.90;;;;;;5023020;28;20696;-66
2022/04/30 04:50:37;;;;;;;2.35;0.77;;;5.80;99.90;;;;;;5024811;28;20051;-66
2022/04/30 04:53:05;;;;;;;0.75;0.57;;;5.80;99.90;;;;;;5025886;28;20064;-66
2022/04/30 04:55:32;;;;;;;2.00;0.50;;;5.80;99.90;;;;;;5023299;28;20080;-65
2022/04/30 04:57:58;;;;;;;5.97;1.00;;;5.80;99.90;;;;;;5024366;28;20055;-67
2022/04/30 05:00:26;;;;;;;1.75;0.90;;;5.80;99.90;;;;;;5021683;28;24821;-68
2022/04/30 05:02:56;;;;;;;5.57;0.80;;;5.80;99.90;;;;;;5020907;28;20084;-66
2022/04/30 05:05:23;;;;;;;1.52;0.57;;;5.70;99.90;;;;;;5025596;28;20136;-66
2022/04/30 05:07:50;;;;;;;3.47;0.65;;;5.70;99.90;;;;;;5026521;28;20203;-63
2022/04/30 05:10:17;;;;;;;0.90;0.47;;;5.80;99.90;;;;;;5023052;28;20056;-66
2022/04/30 05:12:46;;;;;;;2.58;0.98;;;5.70;99.90;;;;;;5024401;28;20136;-64
2022/04/30 05:15:13;;;;;;;1.83;0.80;;;5.80;99.90;;;;;;5025647;28;20041;-69
2022/04/30 05:17:40;;;;;;;3.50;0.80;;;5.80;99.90;;;;;;5024596;28;20055;-67
2022/04/30 05:20:08;;;;;;;3.78;0.88;;;5.80;99.90;;;;;;5020446;28;20118;-66
2022/04/30 05:22:55;;;;;;;5.05;1.67;;;5.70;99.90;;;;;;5023980;28;20259;-63
2022/04/30 05:25:21;;;;;;;3.28;1.42;;;5.70;99.90;;;;;;5023981;28;20090;-65
2022/04/30 05:27:48;;;;;;;11.05;1.50;;;5.70;99.90;;;;;;5025603;28;20045;-68
2022/04/30 05:30:15;;;;;;;1.48;1.20;;;5.70;99.90;;;;;;5022833;28;20047;-64
2022/04/30 05:32:43;;;;;;;1.65;1.20;;;5.70;99.90;;;;;;5021857;28;20145;-66
2022/04/30 05:35:10;;;;;;;1.38;0.90;;;5.70;99.90;;;;;;5022837;28;20126;-68
2022/04/30 05:37:37;;;;;;;3.63;1.13;;;5.70;99.90;;;;;;5006566;28;20093;-67
2022/04/30 05:40:04;;;;;;;0.98;0.90;;;5.60;99.90;;;;;;5026130;28;20049;-64
2022/04/30 05:42:31;;;;;;;3.63;1.75;;;5.70;99.90;;;;;;5026712;28;20067;-67
2022/04/30 05:44:59;;;;;;;1.33;1.10;;;5.60;99.90;;;;;;5027016;28;20061;-66
2022/04/30 05:47:26;;;;;;;1.15;0.80;;;5.70;99.90;;;;;;5023861;28;20048;-68
2022/04/30 05:49:52;;;;;;;2.33;0.77;;;5.60;99.90;;;;;;5020230;28;20075;-68
2022/04/30 05:52:19;;;;;;;1.40;1.10;;;5.60;99.90;;;;;;5020617;28;20055;-68
2022/04/30 05:54:46;;;;;;;1.50;0.60;;;5.60;99.90;;;;;;5022785;28;20049;-67
2022/04/30 05:57:14;;;;;;;4.50;0.80;;;5.60;99.90;;;;;;5023931;28;20132;-67
2022/04/30 05:59:41;;;;;;;2.33;0.70;;;5.60;99.90;;;;;;5022328;28;20051;-65
2022/04/30 06:02:08;;;;;;;2.72;1.10;;;5.60;99.90;;;;;;5020591;28;20049;-68
2022/04/30 06:04:35;;;;;;;4.03;1.42;;;5.60;99.90;;;;;;5021819;28;20110;-66
2022/04/30 06:07:02;;;;;;;1.02;0.98;;;5.60;99.90;;;;;;5020607;28;20238;-67
2022/04/30 06:09:29;;;;;;;3.03;1.58;;;5.60;99.90;;;;;;5022666;28;20041;-65
2022/04/30 06:11:56;;;;;;;2.40;1.73;;;5.60;99.90;;;;;;5021648;28;20151;-68
2022/04/30 06:14:23;;;;;;;3.97;1.08;;;5.60;99.90;;;;;;5020641;28;20044;-67
2022/04/30 06:16:50;;;;;;;1.38;0.60;;;5.60;99.90;;;;;;5023873;28;20041;-65
2022/04/30 06:19:17;;;;;;;3.53;0.98;;;5.60;99.90;;;;;;5020164;28;20052;-68
2022/04/30 06:21:45;;;;;;;1.52;0.90;;;5.60;99.90;;;;;;5021852;28;20407;-67
2022/04/30 06:24:12;;;;;;;3.45;0.88;;;5.60;99.90;;;;;;5021306;28;20042;-68
2022/04/30 06:26:39;;;;;;;2.13;0.90;;;5.50;99.90;;;;;;5022216;28;20123;-69
2022/04/30 06:29:07;;;;;;;1.83;0.90;;;5.50;99.90;;;;;;5021883;28;20055;-64
2022/04/30 06:31:34;;;;;;;3.40;1.10;;;5.50;99.90;;;;;;5026680;28;20829;-68
2022/04/30 06:34:01;;;;;;;2.35;1.67;;;5.50;99.90;;;;;;5026346;28;20045;-66
2022/04/30 06:36:29;;;;;;;2.10;1.70;;;5.50;99.90;;;;;;5025517;28;20095;-68
2022/04/30 06:38:56;;;;;;;2.55;1.67;;;5.50;99.90;;;;;;5022418;28;20049;-65
2022/04/30 06:41:23;;;;;;;4.25;1.05;;;5.50;99.90;;;;;;5019828;28;20181;-66
2022/04/30 06:43:51;;;;;;;1.38;1.00;;;5.40;99.90;;;;;;5020926;28;20051;-66
2022/04/30 06:46:18;;;;;;;1.52;0.90;;;5.40;99.90;;;;;;5025185;28;20072;-64
2022/04/30 06:48:45;;;;;;;1.30;0.60;;;5.40;99.90;;;;;;5029911;28;20208;-65
2022/04/30 06:51:12;;;;;;;3.58;0.90;;;5.40;99.90;;;;;;5032718;28;20053;-65
2022/04/30 06:59:11;;;;;;;1.15;1.02;;;5.40;99.90;;;;;;5035069;28;20067;-68
2022/04/30 07:04:07;;;;;;;6.32;1.25;;;5.40;99.90;;;;;;5033022;28;20124;-65
2022/04/30 07:06:35;;;;;;;2.15;1.60;;;5.40;99.90;;;;;;5032645;28;20156;-65
2022/04/30 07:09:05;;;;;;;1.20;1.10;;;5.50;99.90;;;;;;5033598;28;20059;-65
2022/04/30 07:11:32;;;;;;;2.17;1.80;;;5.40;99.90;;;;;;5031620;28;20064;-65
2022/04/30 07:13:59;;;;;;;7.78;1.75;;;5.40;99.90;;;;;;5032046;28;20087;-65
2022/04/30 07:16:26;;;;;;;1.23;1.08;;;5.40;99.90;;;;;;5032849;28;20056;-63
2022/04/30 07:18:53;;;;;;;2.40;1.40;;;5.50;99.90;;;;;;5033274;28;20037;-66
2022/04/30 07:21:20;;;;;;;2.85;1.77;;;5.50;99.90;;;;;;5033663;28;20068;-68
2022/04/30 07:23:48;;;;;;;3.28;1.30;;;5.50;99.90;;;;;;5034274;28;20045;-65
2022/04/30 07:26:16;;;;;;;3.00;1.52;;;5.50;99.90;;;;;;5031211;28;20495;-66
2022/04/30 07:28:43;;;;;;;0.60;0.60;;;5.50;99.90;;;;;;5033011;28;21526;-64
2022/04/30 07:31:10;;;;;;;1.77;1.35;;;5.50;99.90;;;;;;5032321;28;20063;-68
2022/04/30 07:33:37;;;;;;;3.63;1.67;;;5.50;99.90;;;;;;5033262;28;20052;-64
2022/04/30 07:36:04;;;;;;;1.70;1.33;;;5.50;99.90;;;;;;5032110;28;20061;-67
2022/04/30 07:38:31;;;;;;;2.05;1.85;;;5.50;99.90;;;;;;5032149;28;20059;-66
2022/04/30 07:40:58;;;;;;;3.70;1.50;;;5.50;99.90;;;;;;5032323;28;20152;-66
2022/04/30 07:43:25;;;;;;;1.52;1.25;;;5.50;99.90;;;;;;5031336;28;20055;-67
2022/04/30 07:45:52;;;;;;;1.98;1.00;;;5.50;99.90;;;;;;5033061;28;20048;-66
2022/04/30 07:48:19;;;;;;;2.13;1.17;;;5.50;99.90;;;;;;5030445;28;20215;-65
2022/04/30 07:50:46;;;;;;;1.98;1.50;;;5.50;99.90;;;;;;5031328;28;20628;-67
2022/04/30 07:53:15;;;;;;;3.45;1.25;;;5.50;99.90;;;;;;5031657;28;20049;-66
2022/04/30 07:55:44;;;;;;;3.30;2.25;;;5.50;99.90;;;;;;5030644;28;20455;-66
2022/04/30 07:58:12;;;;;;;3.13;1.58;;;5.50;99.90;;;;;;5028420;28;20045;-65
2022/04/30 08:00:39;;;;;;;1.83;1.45;;;5.40;99.90;;;;;;5029477;28;20055;-66
2022/04/30 08:03:06;;;;;;;2.28;2.00;;;5.40;99.90;;;;;;5029465;28;20930;-65
2022/04/30 08:05:34;;;;;;;3.47;2.00;;;5.50;99.90;;;;;;5029583;28;20120;-66
2022/04/30 08:08:01;;;;;;;2.25;1.58;;;5.50;99.90;;;;;;5030187;28;20045;-64
2022/04/30 08:10:29;;;;;;;4.72;2.50;;;5.50;99.90;;;;;;5027751;28;20049;-63
2022/04/30 08:12:56;;;;;;;2.90;1.73;;;5.50;99.90;;;;;;5029891;28;20060;-64
2022/04/30 08:15:24;;;;;;;1.90;1.65;;;5.60;99.90;;;;;;5030419;28;20712;-67
2022/04/30 08:17:52;;;;;;;2.55;1.70;;;5.60;99.90;;;;;;5029073;28;20064;-67
2022/04/30 08:20:19;;;;;;;2.97;1.50;;;5.70;99.90;;;;;;5027909;28;20132;-66
2022/04/30 08:22:46;;;;;;;1.92;1.60;;;5.70;99.90;;;;;;5028936;28;20415;-68
2022/04/30 08:25:13;;;;;;;3.28;2.10;;;5.70;99.90;;;;;;5027556;28;20064;-67
2022/04/30 08:27:41;;;;;;;1.70;1.60;;;5.70;99.90;;;;;;5028985;28;20082;-65
2022/04/30 08:30:09;;;;;;;3.60;1.60;;;5.70;99.90;;;;;;5028437;28;20475;-66
2022/04/30 08:32:36;;;;;;;1.98;1.73;;;5.80;99.90;;;;;;5029932;28;20064;-66
2022/04/30 08:35:04;;;;;;;2.33;1.50;;;5.80;99.90;;;;;;5029335;28;20136;-66
2022/04/30 08:37:51;;;;;;;2.28;1.98;;;5.90;99.90;;;;;;5029115;28;20057;-66
2022/04/30 08:40:18;;;;;;;2.95;2.75;;;5.90;99.90;;;;;;5027422;28;20148;-64
2022/04/30 08:42:46;;;;;;;1.75;1.52;;;6.00;99.90;;;;;;5029797;28;20059;-66
2022/04/30 08:45:13;;;;;;;1.98;1.73;;;6.00;99.90;;;;;;5029709;28;20056;-65
2022/04/30 08:47:41;;;;;;;3.40;2.17;;;6.10;99.90;;;;;;5028772;28;20744;-66
2022/04/30 08:50:10;;;;;;;2.47;1.63;;;6.10;99.90;;;;;;5028052;28;20076;-64
2022/04/30 08:52:38;;;;;;;1.73;1.40;;;6.20;99.90;;;;;;5029458;28;20984;-64
2022/04/30 08:55:07;;;;;;;3.22;1.55;;;6.30;99.90;;;;;;5028118;28;20048;-66
2022/04/30 08:57:34;;;;;;;3.05;2.17;;;6.40;99.90;;;;;;5028502;28;20504;-68
2022/04/30 09:00:03;;;;;;;1.95;1.50;;;6.50;99.90;;;;;;5029961;28;20692;-63
2022/04/30 09:02:30;;;;;;;3.15;1.42;;;6.60;99.90;;;;;;5028077;28;21543;-66
2022/04/30 09:04:57;;;;;;;5.07;2.05;;;6.60;99.90;;;;;;5029087;28;20049;-67
2022/04/30 09:07:25;;;;;;;3.55;2.03;;;6.80;99.90;;;;;;5029472;28;20599;-66
2022/04/30 09:09:57;;;;;;;3.35;2.05;;;6.90;99.90;;;;;;5028792;28;20155;-64
2022/04/30 09:12:26;;;;;;;1.70;1.60;;;7.00;99.90;;;;;;5028680;28;20072;-65
2022/04/30 09:14:53;;;;;;;1.60;1.50;;;7.10;99.90;;;;;;5028818;28;20099;-64
2022/04/30 09:17:23;;;;;;;2.25;1.60;;;7.20;99.90;;;;;;5029377;28;20136;-65
2022/04/30 09:19:56;;;;;;;4.18;1.63;;;7.40;99.90;;;;;;5029137;28;20142;-66
2022/04/30 09:22:30;;;;;;;1.92;1.67;;;7.50;99.90;;;;;;5025709;28;20142;-65
2022/04/30 09:24:58;;;;;;;1.55;1.45;;;7.70;99.90;;;;;;5027959;28;21477;-63
2022/04/30 09:27:49;;;;;;;4.47;1.75;;;7.80;99.90;;;;;;5023221;28;20175;-65
2022/04/30 09:30:17;;;;;;;2.47;1.70;;;7.90;99.90;;;;;;5024236;28;20045;-65
2022/04/30 09:32:45;;;;;;;4.43;2.28;;;8.00;99.90;;;;;;5026938;28;20053;-68
2022/04/30 09:38:12;;;;;;;;;;;8.40;99.90;;;;;;5009736;28;20053;-68
2022/04/30 09:40:40;;;;;;;2.03;1.73;;;8.60;99.90;;;;;;5026954;28;20177;-65
2022/04/30 09:43:16;;;;;;;1.63;1.50;;;8.90;99.90;;;;;;5027869;28;20127;-67
2022/04/30 09:45:43;;;;;;;1.60;1.50;;;9.10;99.90;;;;;;5027788;28;20053;-64
2022/04/30 09:53:56;;;;;;;4.38;1.33;;;9.80;99.90;;;;;;5028054;28;20072;-66
2022/04/30 09:56:35;;;;;;;1.83;1.60;;;10.00;99.90;;;;;;5026335;28;20076;-67
2022/04/30 09:59:12;;;;;;;1.77;1.08;;;10.20;99.90;;;;;;5027576;28;20159;-66
2022/04/30 10:01:41;;;;;;;1.45;1.30;;;10.40;99.90;;;;;;5028039;28;20053;-66
2022/04/30 10:04:11;;;;;;;3.13;1.45;;;10.60;99.90;;;;;;5026341;28;20048;-67
2022/04/30 10:06:46;;;;;;;2.58;1.50;;;10.80;99.90;;;;;;5027234;28;20044;-68
2022/04/30 10:09:39;;;;;;;1.48;1.20;;;10.80;99.90;;;;;;5028487;28;20037;-66
2022/04/30 10:12:33;;;;;;;2.60;1.02;;;11.00;99.90;;;;;;5027176;28;20155;-64
2022/04/30 10:15:00;;;;;;;1.90;1.23;;;11.30;99.90;;;;;;5026962;28;20154;-65
2022/04/30 10:17:31;;;;;;;4.47;1.48;;;11.50;99.90;;;;;;5028996;28;20040;-66
2022/04/30 10:20:12;;;;;;;4.80;0.85;;;11.80;99.90;;;;;;5026633;28;20535;-69
2022/04/30 10:22:53;;;;;;;2.05;0.60;;;11.80;99.90;;;;;;5026444;28;20115;-67
2022/04/30 10:25:43;;;;;;;1.63;0.95;;;11.70;98.10;;;;;;5026398;28;20066;-65
2022/04/30 10:28:19;;;;;;;3.40;0.95;;;11.60;99.90;;;;;;5026722;28;20064;-64
2022/04/30 10:31:00;;;;;;;2.58;1.13;;;11.60;99.90;;;;;;5027029;28;21188;-65
2022/04/30 10:33:28;;;;;;;1.20;1.10;;;11.40;99.90;;;;;;5024833;28;20106;-67
2022/04/30 10:36:06;;;;;;;2.03;1.13;;;11.20;99.90;;;;;;5025566;28;20151;-66
2022/04/30 10:38:33;;;;;;;2.63;0.90;;;10.90;99.90;;;;;;5025979;28;20051;-69
2022/04/30 10:41:04;;;;;;;6.00;1.25;;;11.00;99.90;;;;;;5024416;28;20072;-65
2022/04/30 10:43:36;;;;;;;2.63;1.63;;;11.10;99.90;;;;;;5027471;28;20747;-67
2022/04/30 10:46:16;;;;;;;12.32;2.42;;;11.40;99.90;;;;;;5026660;28;20099;-65
2022/04/30 10:48:44;;;;;;;4.35;1.42;;;11.40;99.90;;;;;;5025923;28;20107;-67
2022/04/30 10:51:12;;;;;;;3.55;1.83;;;11.40;99.90;;;;;;5025447;28;20056;-68
2022/04/30 10:53:45;;;;;;;2.28;1.25;;;11.40;99.90;;;;;;5027434;28;20701;-69
2022/04/30 10:56:13;;;;;;;3.22;1.25;;;11.20;96.00;;;;;;5025031;28;20060;-63
2022/04/30 10:58:44;;;;;;;2.22;2.03;;;11.10;99.90;;;;;;5026968;28;20034;-66
2022/04/30 11:01:16;;;;;;;2.30;1.33;;;10.90;99.90;;;;;;5026625;28;20102;-69
2022/04/30 11:03:44;;;;;;;3.13;1.17;;;11.10;99.90;;;;;;5026876;28;20044;-66
2022/04/30 11:06:19;;;;;;;2.88;0.82;;;11.40;98.90;;;;;;5025387;28;20049;-67
2022/04/30 11:09:08;;;;;;;1.08;0.80;;;11.30;96.90;;;;;;5027622;28;20113;-66
2022/04/30 11:11:36;;;;;;;4.95;1.50;;;11.50;94.70;;;;;;5026748;28;20041;-66
2022/04/30 11:14:11;;;;;;;2.65;0.70;;;11.50;97.40;;;;;;5027635;28;20194;-65
2022/04/30 11:16:44;;;;;;;1.48;0.30;;;11.80;86.20;;;;;;5025651;28;20183;-67
2022/04/30 11:19:13;;;;;;;0.88;0.28;;;12.10;85.70;;;;;;5008089;28;20049;-67
2022/04/30 11:21:42;;;;;;;0.20;0.20;;;12.30;76.20;;;;;;5025634;28;20088;-64
2022/04/30 11:24:09;;;;;;;0.22;0.20;;;12.40;72.80;;;;;;5025430;28;20041;-69
2022/04/30 11:26:45;;;;;;;0.63;0.40;;;12.60;73.30;;;;;;5025572;28;20175;-69
2022/04/30 11:29:13;;;;;;;0.57;0.30;;;12.60;72.10;;;;;;5027456;28;20430;-67
2022/04/30 11:31:43;;;;;;;0.20;0.20;;;12.60;68.90;;;;;;5026566;28;20055;-67
2022/04/30 11:34:13;;;;;;;0.47;0.20;;;12.50;67.70;;;;;;5029253;28;20267;-66
2022/04/30 11:36:43;;;;;;;0.90;0.20;;;12.60;68.40;;;;;;5033598;28;20896;-68
2022/04/30 11:39:11;;;;;;;2.00;0.50;;;12.50;67.90;;;;;;5032426;28;20641;-67
2022/04/30 11:41:42;;;;;;;0.93;0.30;;;12.50;69.10;;;;;;5023665;28;20514;-68
2022/04/30 11:44:10;;;;;;;0.20;0.20;;;12.30;68.00;;;;;;5028768;28;20057;-66
2022/04/30 11:46:39;;;;;;;0.15;0.15;;;12.30;70.30;;;;;;5033729;28;20156;-66
2022/04/30 11:49:16;;;;;;;3.47;1.02;;;12.40;70.00;;;;;;5031497;28;20163;-65
2022/04/30 11:52:04;;;;;;;3.05;0.50;;;12.50;68.00;;;;;;5031287;28;20040;-67
2022/04/30 11:54:35;;;;;;;0.43;0.10;;;12.70;68.90;;;;;;5033276;28;20064;-69
2022/04/30 11:57:03;;;;;;;0.47;0.22;;;12.80;69.30;;;;;;5032662;28;20149;-67
2022/04/30 11:59:32;;;;;;;0.70;0.30;;;12.90;71.30;;;;;;5034017;28;20940;-65
2022/04/30 12:02:07;;;;;;;0.50;0.20;;;13.00;71.40;;;;;;5034246;28;20614;-66
2022/04/30 12:04:36;;;;;;;2.45;0.52;;;13.20;70.50;;;;;;5032957;28;20915;-65
2022/04/30 12:07:08;;;;;;;0.45;0.45;;;13.40;69.40;;;;;;5034181;28;20710;-66
2022/04/30 12:09:39;;;;;;;0.40;0.10;;;13.50;68.20;;;;;;5033577;28;20206;-67
2022/04/30 12:12:23;;;;;;;0.38;0.20;;;13.50;68.60;;;;;;5030541;28;20130;-72
2022/04/30 12:14:56;;;;;;;0.50;0.38;;;13.80;69.40;;;;;;5033221;28;20051;-66
2022/04/30 12:17:31;;;;;;;0.80;0.40;;;13.80;68.40;;;;;;5034853;28;20072;-67
2022/04/30 12:26:05;;;;;;;0.20;0.10;;;13.30;67.70;;;;;;5033636;28;20053;-67
2022/04/30 12:28:47;;;;;;;3.10;0.30;;;13.20;68.20;;;;;;5031934;28;20057;-65
2022/04/30 12:31:15;;;;;;;1.00;0.45;;;13.40;67.60;;;;;;5034601;28;20059;-68
2022/04/30 12:33:50;;;;;;;0.73;0.28;;;13.70;67.80;;;;;;5033729;28;20045;-66
2022/04/30 12:36:18;;;;;;;3.22;0.85;;;14.00;67.60;;;;;;5031513;28;20439;-69
2022/04/30 12:38:55;;;;;;;1.00;0.30;;;14.20;68.00;;;;;;5034987;28;20148;-69
2022/04/30 12:41:23;;;;;;;4.13;0.60;;;14.20;65.50;;;;;;5034549;28;20057;-63
2022/04/30 12:43:51;;;;;;;1.15;0.75;;;13.90;66.00;;;;;;5032713;28;21535;-66
2022/04/30 12:46:22;;;;;;;1.05;0.68;;;13.80;66.60;;;;;;5029095;28;20150;-64
2022/04/30 12:48:50;;;;;;;0.82;0.50;;;14.00;68.90;;;;;;5034011;28;20190;-65
2022/04/30 12:51:19;;;;;;;0.20;0.13;;;14.20;66.10;;;;;;5032930;28;20060;-66
2022/04/30 12:53:46;;;;;;;1.05;0.60;;;14.20;65.70;;;;;;5031610;28;20139;-67
2022/04/30 12:56:13;;;;;;;0.55;0.20;;;14.30;65.10;;;;;;5039248;28;20493;-65
2022/04/30 12:58:39;;;;;;;0.73;0.30;;;14.50;68.70;;;;;;5031390;28;20047;-67
2022/04/30 13:01:06;;;;;;;1.33;0.52;;;14.60;65.50;;;;;;5030482;28;20188;-67
2022/04/30 13:03:34;;;;;;;0.80;0.47;;;14.70;64.60;;;;;;5031516;28;20121;-69
2022/04/30 13:06:02;;;;;;;0.63;0.43;;;14.60;62.90;;;;;;5030679;28;20041;-69
2022/04/30 13:13:31;;;;;;;0.85;0.60;;;14.40;63.00;;;;;;5029979;28;20091;-65
2022/04/30 13:14:02;;;;;;;0.80;0.60;;;14.20;63.70;;;;;;5034849;28;20332;-65
2022/04/30 13:16:29;;;;;;;0.30;0.30;;;14.20;63.10;;;;;;5032197;28;20124;-68
2022/04/30 13:18:56;;;;;;;2.42;0.40;;;14.30;66.20;;;;;;5032906;28;20685;-68
2022/04/30 13:21:23;;;;;;;1.17;0.32;;;14.40;63.50;;;;;;5031300;28;20051;-69
2022/04/30 13:23:50;;;;;;;0.98;0.47;;;14.50;67.10;;;;;;5032928;28;20144;-66
2022/04/30 13:26:20;;;;;;;0.25;0.25;;;14.50;65.10;;;;;;5029703;28;20048;-65
2022/04/30 13:28:48;;;;;;;0.52;0.40;;;14.40;63.20;;;;;;5032418;28;20053;-65
2022/04/30 13:31:15;;;;;;;0.75;0.50;;;14.40;65.30;;;;;;5031288;28;20053;-67
2022/04/30 13:33:42;;;;;;;4.07;0.70;;;14.60;62.60;;;;;;5031770;28;20644;-67
2022/04/30 13:36:09;;;;;;;0.25;0.25;;;14.30;62.20;;;;;;5026837;28;20049;-69
2022/04/30 13:38:38;;;;;;;2.25;0.50;;;14.40;59.90;;;;;;5009307;28;20171;-67
2022/04/30 13:41:08;;;;;;;2.05;0.70;;;14.40;60.90;;;;;;5026845;28;20960;-66
2022/04/30 13:43:35;;;;;;;1.13;0.32;;;14.40;60.10;;;;;;5027869;28;20059;-70
2022/04/30 13:46:02;;;;;;;0.32;0.30;;;14.50;61.70;;;;;;5026375;28;20126;-69
2022/04/30 13:48:29;;;;;;;1.73;0.70;;;14.60;62.60;;;;;;5025949;28;20073;-65